sensor_id;sensor_type;location;lat;lon;timestamp;temperature;humidity
11664;DHT22;72375;59.302;18.204;2024-03-08T00:02:37;2.60;70.70
11664;DHT22;72375;59.302;18.204;2024-03-08T00:05:23;2.50;70.80
11664;DHT22;72375;59.302;18.204;2024-03-08T00:08:08;2.50;70.90
11664;DHT22;72375;59.302;18.204;2024-03-08T00:10:54;2.50;71.00
11664;DHT22;72375;59.302;18.204;2024-03-08T00:13:40;2.50;71.10
11664;DHT22;72375;59.302;18.204;2024-03-08T00:16:26;2.40;71.10
11664;DHT22;72375;59.302;18.204;2024-03-08T00:19:13;2.40;71.20
11664;DHT22;72375;59.302;18.204;2024-03-08T00:21:58;2.40;71.30
11664;DHT22;72375;59.302;18.204;2024-03-08T00:24:44;2.30;71.30
11664;DHT22;72375;59.302;18.204;2024-03-08T00:27:31;2.30;71.40
11664;DHT22;72375;59.302;18.204;2024-03-08T00:30:16;2.30;71.60
11664;DHT22;72375;59.302;18.204;2024-03-08T00:33:02;2.30;71.50
11664;DHT22;72375;59.302;18.204;2024-03-08T00:35:49;2.30;71.60
11664;DHT22;72375;59.302;18.204;2024-03-08T00:38:35;2.20;71.70
11664;DHT22;72375;59.302;18.204;2024-03-08T00:41:20;2.20;71.50
11664;DHT22;72375;59.302;18.204;2024-03-08T00:44:06;2.80;72.40
11664;DHT22;72375;59.302;18.204;2024-03-08T00:46:52;2.20;71.90
11664;DHT22;72375;59.302;18.204;2024-03-08T00:49:37;2.20;72.00
11664;DHT22;72375;59.302;18.204;2024-03-08T00:52:25;2.20;72.00
11664;DHT22;72375;59.302;18.204;2024-03-08T00:55:10;2.10;72.00
11664;DHT22;72375;59.302;18.204;2024-03-08T00:57:56;2.10;72.00
11664;DHT22;72375;59.302;18.204;2024-03-08T01:00:42;2.10;72.10
11664;DHT22;72375;59.302;18.204;2024-03-08T01:03:27;2.10;72.20
11664;DHT22;72375;59.302;18.204;2024-03-08T01:06:16;2.10;72.40
11664;DHT22;72375;59.302;18.204;2024-03-08T01:09:03;2.10;72.50
11664;DHT22;72375;59.302;18.204;2024-03-08T01:11:51;2.00;72.60
11664;DHT22;72375;59.302;18.204;2024-03-08T01:14:38;2.00;72.60
11664;DHT22;72375;59.302;18.204;2024-03-08T01:17:24;2.00;72.70
11664;DHT22;72375;59.302;18.204;2024-03-08T01:20:10;2.00;73.00
11664;DHT22;72375;59.302;18.204;2024-03-08T01:22:56;1.90;72.80
11664;DHT22;72375;59.302;18.204;2024-03-08T01:25:43;1.90;73.00
11664;DHT22;72375;59.302;18.204;2024-03-08T01:28:30;1.90;73.00
11664;DHT22;72375;59.302;18.204;2024-03-08T01:31:16;1.90;73.00
11664;DHT22;72375;59.302;18.204;2024-03-08T01:34:01;1.90;73.10
11664;DHT22;72375;59.302;18.204;2024-03-08T01:36:47;1.90;73.30
11664;DHT22;72375;59.302;18.204;2024-03-08T01:39:33;1.80;73.30
11664;DHT22;72375;59.302;18.204;2024-03-08T01:42:20;1.80;73.30
11664;DHT22;72375;59.302;18.204;2024-03-08T01:45:07;1.80;73.30
11664;DHT22;72375;59.302;18.204;2024-03-08T01:47:52;1.80;74.20
11664;DHT22;72375;59.302;18.204;2024-03-08T01:50:38;2.30;74.10
11664;DHT22;72375;59.302;18.204;2024-03-08T01:53:25;1.80;73.70
11664;DHT22;72375;59.302;18.204;2024-03-08T01:56:11;1.80;73.90
11664;DHT22;72375;59.302;18.204;2024-03-08T01:58:59;1.80;74.00
11664;DHT22;72375;59.302;18.204;2024-03-08T02:01:45;1.70;74.10
11664;DHT22;72375;59.302;18.204;2024-03-08T02:04:30;1.70;74.10
11664;DHT22;72375;59.302;18.204;2024-03-08T02:07:16;1.70;74.20
11664;DHT22;72375;59.302;18.204;2024-03-08T02:10:02;1.60;74.30
11664;DHT22;72375;59.302;18.204;2024-03-08T02:12:47;1.60;74.40
11664;DHT22;72375;59.302;18.204;2024-03-08T02:15:54;1.60;74.50
11664;DHT22;72375;59.302;18.204;2024-03-08T02:18:40;1.60;74.60
11664;DHT22;72375;59.302;18.204;2024-03-08T02:21:27;1.60;74.80
11664;DHT22;72375;59.302;18.204;2024-03-08T02:24:13;1.50;74.80
11664;DHT22;72375;59.302;18.204;2024-03-08T02:26:59;1.50;74.90
11664;DHT22;72375;59.302;18.204;2024-03-08T02:29:46;1.50;75.00
11664;DHT22;72375;59.302;18.204;2024-03-08T02:32:31;1.50;75.00
11664;DHT22;72375;59.302;18.204;2024-03-08T02:35:17;1.50;75.10
11664;DHT22;72375;59.302;18.204;2024-03-08T02:38:04;1.50;75.30
11664;DHT22;72375;59.302;18.204;2024-03-08T02:40:51;1.50;75.40
11664;DHT22;72375;59.302;18.204;2024-03-08T02:43:37;1.50;75.50
11664;DHT22;72375;59.302;18.204;2024-03-08T02:46:22;1.50;76.40
11664;DHT22;72375;59.302;18.204;2024-03-08T02:49:08;1.50;75.70
11664;DHT22;72375;59.302;18.204;2024-03-08T02:51:54;1.50;75.60
11664;DHT22;72375;59.302;18.204;2024-03-08T02:54:42;1.40;75.70
11664;DHT22;72375;59.302;18.204;2024-03-08T02:57:30;1.40;75.60
11664;DHT22;72375;59.302;18.204;2024-03-08T03:00:16;1.40;75.90
11664;DHT22;72375;59.302;18.204;2024-03-08T03:03:04;1.40;76.00
11664;DHT22;72375;59.302;18.204;2024-03-08T03:05:50;1.30;76.00
11664;DHT22;72375;59.302;18.204;2024-03-08T03:08:36;1.30;76.10
11664;DHT22;72375;59.302;18.204;2024-03-08T03:11:24;1.30;76.20
11664;DHT22;72375;59.302;18.204;2024-03-08T03:14:11;1.30;76.40
11664;DHT22;72375;59.302;18.204;2024-03-08T03:16:56;1.30;76.50
11664;DHT22;72375;59.302;18.204;2024-03-08T03:19:42;1.30;76.50
11664;DHT22;72375;59.302;18.204;2024-03-08T03:22:28;1.20;76.60
11664;DHT22;72375;59.302;18.204;2024-03-08T03:25:14;1.20;77.60
11664;DHT22;72375;59.302;18.204;2024-03-08T03:28:08;1.20;77.00
11664;DHT22;72375;59.302;18.204;2024-03-08T03:30:55;1.10;77.20
11664;DHT22;72375;59.302;18.204;2024-03-08T03:33:42;1.20;77.30
11664;DHT22;72375;59.302;18.204;2024-03-08T03:36:28;1.10;77.40
11664;DHT22;72375;59.302;18.204;2024-03-08T03:39:14;1.10;77.50
11664;DHT22;72375;59.302;18.204;2024-03-08T03:42:01;1.10;77.60
11664;DHT22;72375;59.302;18.204;2024-03-08T03:44:49;1.10;77.60
11664;DHT22;72375;59.302;18.204;2024-03-08T03:47:34;1.00;77.80
11664;DHT22;72375;59.302;18.204;2024-03-08T03:50:20;1.20;78.10
11664;DHT22;72375;59.302;18.204;2024-03-08T03:53:06;1.00;78.00
11664;DHT22;72375;59.302;18.204;2024-03-08T03:55:52;1.00;78.00
11664;DHT22;72375;59.302;18.204;2024-03-08T03:58:38;1.00;78.90
11664;DHT22;72375;59.302;18.204;2024-03-08T04:01:25;1.00;78.00
11664;DHT22;72375;59.302;18.204;2024-03-08T04:04:11;1.00;78.20
11664;DHT22;72375;59.302;18.204;2024-03-08T04:06:56;1.00;78.20
11664;DHT22;72375;59.302;18.204;2024-03-08T04:09:42;1.00;79.10
11664;DHT22;72375;59.302;18.204;2024-03-08T04:12:28;1.00;78.40
11664;DHT22;72375;59.302;18.204;2024-03-08T04:15:14;1.00;78.50
11664;DHT22;72375;59.302;18.204;2024-03-08T04:18:01;1.00;78.60
11664;DHT22;72375;59.302;18.204;2024-03-08T04:20:47;1.00;78.70
11664;DHT22;72375;59.302;18.204;2024-03-08T04:23:33;1.00;78.60
11664;DHT22;72375;59.302;18.204;2024-03-08T04:26:19;1.00;78.60
11664;DHT22;72375;59.302;18.204;2024-03-08T04:29:05;1.00;78.90
11664;DHT22;72375;59.302;18.204;2024-03-08T04:31:51;1.00;78.90
11664;DHT22;72375;59.302;18.204;2024-03-08T04:34:40;1.00;79.10
11664;DHT22;72375;59.302;18.204;2024-03-08T04:37:25;1.00;79.20
11664;DHT22;72375;59.302;18.204;2024-03-08T04:40:11;1.00;79.40
11664;DHT22;72375;59.302;18.204;2024-03-08T04:42:58;1.00;79.50
11664;DHT22;72375;59.302;18.204;2024-03-08T04:45:44;1.00;79.70
11664;DHT22;72375;59.302;18.204;2024-03-08T04:48:30;1.00;80.00
11664;DHT22;72375;59.302;18.204;2024-03-08T04:51:17;0.90;80.10
11664;DHT22;72375;59.302;18.204;2024-03-08T04:54:03;0.90;80.20
11664;DHT22;72375;59.302;18.204;2024-03-08T04:56:49;0.90;80.40
11664;DHT22;72375;59.302;18.204;2024-03-08T04:59:35;1.30;80.80
11664;DHT22;72375;59.302;18.204;2024-03-08T05:02:21;0.90;80.50
11664;DHT22;72375;59.302;18.204;2024-03-08T05:05:08;0.90;80.70
11664;DHT22;72375;59.302;18.204;2024-03-08T05:07:57;0.90;80.80
11664;DHT22;72375;59.302;18.204;2024-03-08T05:10:43;0.90;81.00
11664;DHT22;72375;59.302;18.204;2024-03-08T05:13:28;0.90;81.00
11664;DHT22;72375;59.302;18.204;2024-03-08T05:16:14;0.90;81.20
11664;DHT22;72375;59.302;18.204;2024-03-08T05:19:00;0.90;81.30
11664;DHT22;72375;59.302;18.204;2024-03-08T05:21:46;0.90;81.50
11664;DHT22;72375;59.302;18.204;2024-03-08T05:24:33;0.90;81.60
11664;DHT22;72375;59.302;18.204;2024-03-08T05:27:19;0.90;81.60
11664;DHT22;72375;59.302;18.204;2024-03-08T05:30:06;1.00;81.80
11664;DHT22;72375;59.302;18.204;2024-03-08T05:32:58;0.90;81.80
11664;DHT22;72375;59.302;18.204;2024-03-08T05:35:43;1.10;83.00
11664;DHT22;72375;59.302;18.204;2024-03-08T05:38:29;0.90;82.10
11664;DHT22;72375;59.302;18.204;2024-03-08T05:41:16;0.90;82.10
11664;DHT22;72375;59.302;18.204;2024-03-08T05:44:03;0.90;82.30
11664;DHT22;72375;59.302;18.204;2024-03-08T05:46:48;0.90;82.30
11664;DHT22;72375;59.302;18.204;2024-03-08T05:49:34;0.90;82.40
11664;DHT22;72375;59.302;18.204;2024-03-08T05:52:20;1.00;82.60
11664;DHT22;72375;59.302;18.204;2024-03-08T05:55:07;1.00;82.80
11664;DHT22;72375;59.302;18.204;2024-03-08T05:57:55;1.00;82.80
11664;DHT22;72375;59.302;18.204;2024-03-08T06:00:41;1.10;83.00
11664;DHT22;72375;59.302;18.204;2024-03-08T06:03:26;1.10;83.00
11664;DHT22;72375;59.302;18.204;2024-03-08T06:06:12;1.10;83.10
11664;DHT22;72375;59.302;18.204;2024-03-08T06:08:58;1.10;83.10
11664;DHT22;72375;59.302;18.204;2024-03-08T06:11:44;1.10;83.10
11664;DHT22;72375;59.302;18.204;2024-03-08T06:14:31;1.20;83.20
11664;DHT22;72375;59.302;18.204;2024-03-08T06:17:16;1.20;83.40
11664;DHT22;72375;59.302;18.204;2024-03-08T06:20:02;1.20;83.50
11664;DHT22;72375;59.302;18.204;2024-03-08T06:22:54;1.30;84.30
11664;DHT22;72375;59.302;18.204;2024-03-08T06:25:40;1.30;83.40
11664;DHT22;72375;59.302;18.204;2024-03-08T06:28:26;1.70;84.40
11664;DHT22;72375;59.302;18.204;2024-03-08T06:31:13;1.50;83.50
11664;DHT22;72375;59.302;18.204;2024-03-08T06:33:59;1.60;83.10
11664;DHT22;72375;59.302;18.204;2024-03-08T06:36:44;1.70;83.10
11664;DHT22;72375;59.302;18.204;2024-03-08T06:39:30;1.80;83.00
11664;DHT22;72375;59.302;18.204;2024-03-08T06:42:17;1.80;82.80
11664;DHT22;72375;59.302;18.204;2024-03-08T06:45:03;1.90;82.90
11664;DHT22;72375;59.302;18.204;2024-03-08T06:47:51;2.00;82.70
11664;DHT22;72375;59.302;18.204;2024-03-08T06:50:36;2.10;82.60
11664;DHT22;72375;59.302;18.204;2024-03-08T06:53:22;2.30;82.70
11664;DHT22;72375;59.302;18.204;2024-03-08T06:56:09;2.50;82.80
11664;DHT22;72375;59.302;18.204;2024-03-08T06:58:54;2.80;82.50
11664;DHT22;72375;59.302;18.204;2024-03-08T07:01:40;3.10;81.90
11664;DHT22;72375;59.302;18.204;2024-03-08T07:04:27;3.40;81.30
11664;DHT22;72375;59.302;18.204;2024-03-08T07:07:14;3.60;81.00
11664;DHT22;72375;59.302;18.204;2024-03-08T07:10:00;3.70;80.20
11664;DHT22;72375;59.302;18.204;2024-03-08T07:12:45;4.00;80.30
11664;DHT22;72375;59.302;18.204;2024-03-08T07:15:32;4.10;80.10
11664;DHT22;72375;59.302;18.204;2024-03-08T07:18:18;4.30;80.00
11664;DHT22;72375;59.302;18.204;2024-03-08T07:21:05;4.40;79.70
11664;DHT22;72375;59.302;18.204;2024-03-08T07:23:51;4.60;79.50
11664;DHT22;72375;59.302;18.204;2024-03-08T07:26:54;4.80;79.60
11664;DHT22;72375;59.302;18.204;2024-03-08T07:29:40;4.80;79.50
11664;DHT22;72375;59.302;18.204;2024-03-08T07:32:26;5.00;79.50
11664;DHT22;72375;59.302;18.204;2024-03-08T07:35:13;5.20;79.50
11664;DHT22;72375;59.302;18.204;2024-03-08T07:38:03;5.40;79.40
11664;DHT22;72375;59.302;18.204;2024-03-08T07:40:49;5.70;79.00
11664;DHT22;72375;59.302;18.204;2024-03-08T07:43:35;5.80;78.80
11664;DHT22;72375;59.302;18.204;2024-03-08T07:46:21;6.00;78.80
11664;DHT22;72375;59.302;18.204;2024-03-08T07:49:07;6.30;78.60
11664;DHT22;72375;59.302;18.204;2024-03-08T07:51:55;6.60;78.50
11664;DHT22;72375;59.302;18.204;2024-03-08T07:54:42;6.80;78.20
11664;DHT22;72375;59.302;18.204;2024-03-08T07:57:28;7.00;77.80
11664;DHT22;72375;59.302;18.204;2024-03-08T08:00:14;7.20;77.70
11664;DHT22;72375;59.302;18.204;2024-03-08T08:03:03;7.40;77.50
11664;DHT22;72375;59.302;18.204;2024-03-08T08:05:48;7.60;77.40
11664;DHT22;72375;59.302;18.204;2024-03-08T08:08:34;7.70;77.10
11664;DHT22;72375;59.302;18.204;2024-03-08T08:11:22;7.90;76.80
11664;DHT22;72375;59.302;18.204;2024-03-08T08:14:07;8.10;76.50
11664;DHT22;72375;59.302;18.204;2024-03-08T08:16:53;8.30;76.10
11664;DHT22;72375;59.302;18.204;2024-03-08T08:19:41;8.50;75.90
11664;DHT22;72375;59.302;18.204;2024-03-08T08:22:27;8.70;75.60
11664;DHT22;72375;59.302;18.204;2024-03-08T08:25:13;8.90;75.50
11664;DHT22;72375;59.302;18.204;2024-03-08T08:28:01;9.10;75.30
11664;DHT22;72375;59.302;18.204;2024-03-08T08:30:48;9.40;75.20
11664;DHT22;72375;59.302;18.204;2024-03-08T08:33:33;9.70;75.80
11664;DHT22;72375;59.302;18.204;2024-03-08T08:36:19;9.90;74.60
11664;DHT22;72375;59.302;18.204;2024-03-08T08:39:05;10.20;72.80
11664;DHT22;72375;59.302;18.204;2024-03-08T08:41:56;10.50;72.40
11664;DHT22;72375;59.302;18.204;2024-03-08T08:44:43;10.70;71.50
11664;DHT22;72375;59.302;18.204;2024-03-08T08:47:29;11.00;71.20
11664;DHT22;72375;59.302;18.204;2024-03-08T08:50:14;11.30;71.20
11664;DHT22;72375;59.302;18.204;2024-03-08T08:53:00;11.60;70.70
11664;DHT22;72375;59.302;18.204;2024-03-08T08:55:47;11.90;70.20
11664;DHT22;72375;59.302;18.204;2024-03-08T08:58:33;12.20;69.90
11664;DHT22;72375;59.302;18.204;2024-03-08T09:01:20;12.50;69.40
11664;DHT22;72375;59.302;18.204;2024-03-08T09:04:06;12.80;69.30
11664;DHT22;72375;59.302;18.204;2024-03-08T09:06:52;13.10;68.90
11664;DHT22;72375;59.302;18.204;2024-03-08T09:09:37;13.30;68.60
11664;DHT22;72375;59.302;18.204;2024-03-08T09:12:23;13.60;68.30
11664;DHT22;72375;59.302;18.204;2024-03-08T09:15:09;13.90;68.00
11664;DHT22;72375;59.302;18.204;2024-03-08T09:17:56;14.20;67.10
11664;DHT22;72375;59.302;18.204;2024-03-08T09:20:43;14.50;66.60
11664;DHT22;72375;59.302;18.204;2024-03-08T09:23:28;14.70;66.10
11664;DHT22;72375;59.302;18.204;2024-03-08T09:26:15;15.00;65.60
11664;DHT22;72375;59.302;18.204;2024-03-08T09:29:01;15.30;65.40
11664;DHT22;72375;59.302;18.204;2024-03-08T09:31:47;15.60;64.80
11664;DHT22;72375;59.302;18.204;2024-03-08T09:34:34;15.80;63.90
11664;DHT22;72375;59.302;18.204;2024-03-08T09:37:19;16.10;63.50
11664;DHT22;72375;59.302;18.204;2024-03-08T09:40:06;16.30;62.60
11664;DHT22;72375;59.302;18.204;2024-03-08T09:42:53;16.60;62.40
11664;DHT22;72375;59.302;18.204;2024-03-08T09:45:40;16.90;61.60
11664;DHT22;72375;59.302;18.204;2024-03-08T09:48:26;17.30;59.30
11664;DHT22;72375;59.302;18.204;2024-03-08T09:51:15;17.60;58.70
11664;DHT22;72375;59.302;18.204;2024-03-08T09:54:01;17.90;58.40
11664;DHT22;72375;59.302;18.204;2024-03-08T09:56:48;18.10;57.90
11664;DHT22;72375;59.302;18.204;2024-03-08T09:59:36;18.20;57.90
11664;DHT22;72375;59.302;18.204;2024-03-08T10:02:32;18.50;57.70
11664;DHT22;72375;59.302;18.204;2024-03-08T10:05:19;18.60;57.60
11664;DHT22;72375;59.302;18.204;2024-03-08T10:08:07;18.80;57.60
11664;DHT22;72375;59.302;18.204;2024-03-08T10:10:53;18.90;57.50
11664;DHT22;72375;59.302;18.204;2024-03-08T10:13:39;19.10;57.50
11664;DHT22;72375;59.302;18.204;2024-03-08T10:16:26;19.20;57.10
11664;DHT22;72375;59.302;18.204;2024-03-08T10:19:13;19.40;56.80
11664;DHT22;72375;59.302;18.204;2024-03-08T10:22:00;19.60;56.20
11664;DHT22;72375;59.302;18.204;2024-03-08T10:24:47;19.80;55.90
11664;DHT22;72375;59.302;18.204;2024-03-08T10:27:33;19.90;55.60
11664;DHT22;72375;59.302;18.204;2024-03-08T10:30:19;20.10;55.20
11664;DHT22;72375;59.302;18.204;2024-03-08T10:33:05;20.30;54.80
11664;DHT22;72375;59.302;18.204;2024-03-08T10:35:51;20.40;54.40
11664;DHT22;72375;59.302;18.204;2024-03-08T10:38:39;20.60;54.00
11664;DHT22;72375;59.302;18.204;2024-03-08T10:41:29;20.80;53.50
11664;DHT22;72375;59.302;18.204;2024-03-08T10:44:28;21.00;53.20
11664;DHT22;72375;59.302;18.204;2024-03-08T10:47:22;21.20;52.60
11664;DHT22;72375;59.302;18.204;2024-03-08T10:50:18;21.30;52.20
11664;DHT22;72375;59.302;18.204;2024-03-08T10:53:06;21.50;51.60
11664;DHT22;72375;59.302;18.204;2024-03-08T10:55:53;21.70;51.40
11664;DHT22;72375;59.302;18.204;2024-03-08T10:58:41;21.80;50.90
11664;DHT22;72375;59.302;18.204;2024-03-08T11:01:28;22.00;50.70
11664;DHT22;72375;59.302;18.204;2024-03-08T11:04:14;22.10;50.30
11664;DHT22;72375;59.302;18.204;2024-03-08T11:07:01;22.10;49.70
11664;DHT22;72375;59.302;18.204;2024-03-08T11:09:50;22.20;49.20
11664;DHT22;72375;59.302;18.204;2024-03-08T11:12:37;22.20;49.20
11664;DHT22;72375;59.302;18.204;2024-03-08T11:15:24;22.20;49.10
11664;DHT22;72375;59.302;18.204;2024-03-08T11:18:10;22.40;48.90
11664;DHT22;72375;59.302;18.204;2024-03-08T11:20:56;22.50;48.80
11664;DHT22;72375;59.302;18.204;2024-03-08T11:23:42;22.60;48.50
11664;DHT22;72375;59.302;18.204;2024-03-08T11:26:30;22.40;47.50
11664;DHT22;72375;59.302;18.204;2024-03-08T11:29:35;22.50;48.00
11664;DHT22;72375;59.302;18.204;2024-03-08T11:32:27;22.60;47.50
11664;DHT22;72375;59.302;18.204;2024-03-08T11:35:19;22.60;47.20
11664;DHT22;72375;59.302;18.204;2024-03-08T11:38:04;22.40;47.10
11664;DHT22;72375;59.302;18.204;2024-03-08T11:40:51;22.30;47.00
11664;DHT22;72375;59.302;18.204;2024-03-08T11:43:36;22.20;47.40
11664;DHT22;72375;59.302;18.204;2024-03-08T11:46:24;22.10;47.70
11664;DHT22;72375;59.302;18.204;2024-03-08T11:49:13;22.20;47.80
11664;DHT22;72375;59.302;18.204;2024-03-08T11:52:00;22.20;47.70
11664;DHT22;72375;59.302;18.204;2024-03-08T11:54:53;22.20;47.30
11664;DHT22;72375;59.302;18.204;2024-03-08T11:57:40;22.30;47.10
11664;DHT22;72375;59.302;18.204;2024-03-08T12:00:27;22.40;47.40
11664;DHT22;72375;59.302;18.204;2024-03-08T12:03:19;22.70;47.10
11664;DHT22;72375;59.302;18.204;2024-03-08T12:06:06;22.90;46.70
11664;DHT22;72375;59.302;18.204;2024-03-08T12:08:53;23.00;46.40
11664;DHT22;72375;59.302;18.204;2024-03-08T12:11:39;23.30;46.70
11664;DHT22;72375;59.302;18.204;2024-03-08T12:14:25;23.50;45.90
11664;DHT22;72375;59.302;18.204;2024-03-08T12:17:10;23.70;45.60
11664;DHT22;72375;59.302;18.204;2024-03-08T12:19:56;23.90;45.10
11664;DHT22;72375;59.302;18.204;2024-03-08T12:22:44;24.10;45.00
11664;DHT22;72375;59.302;18.204;2024-03-08T12:25:31;24.20;44.90
11664;DHT22;72375;59.302;18.204;2024-03-08T12:28:19;24.10;43.80
11664;DHT22;72375;59.302;18.204;2024-03-08T12:31:07;24.20;43.40
11664;DHT22;72375;59.302;18.204;2024-03-08T12:33:55;24.10;43.10
11664;DHT22;72375;59.302;18.204;2024-03-08T12:36:46;24.20;43.30
11664;DHT22;72375;59.302;18.204;2024-03-08T12:39:34;24.40;42.80
11664;DHT22;72375;59.302;18.204;2024-03-08T12:42:21;24.80;42.50
11664;DHT22;72375;59.302;18.204;2024-03-08T12:45:07;25.40;42.50
11664;DHT22;72375;59.302;18.204;2024-03-08T12:47:55;25.90;40.80
11664;DHT22;72375;59.302;18.204;2024-03-08T12:50:40;26.30;40.00
11664;DHT22;72375;59.302;18.204;2024-03-08T12:53:28;26.90;39.00
11664;DHT22;72375;59.302;18.204;2024-03-08T12:56:28;27.20;37.90
11664;DHT22;72375;59.302;18.204;2024-03-08T12:59:15;27.50;37.40
11664;DHT22;72375;59.302;18.204;2024-03-08T13:02:00;27.60;37.20
11664;DHT22;72375;59.302;18.204;2024-03-08T13:04:46;27.70;36.10
11664;DHT22;72375;59.302;18.204;2024-03-08T13:07:39;27.30;36.30
11664;DHT22;72375;59.302;18.204;2024-03-08T13:10:29;27.10;36.60
11664;DHT22;72375;59.302;18.204;2024-03-08T13:13:16;26.80;36.80
11664;DHT22;72375;59.302;18.204;2024-03-08T13:16:02;26.50;37.10
11664;DHT22;72375;59.302;18.204;2024-03-08T13:18:47;26.20;37.40
11664;DHT22;72375;59.302;18.204;2024-03-08T13:21:34;25.80;37.40
11664;DHT22;72375;59.302;18.204;2024-03-08T13:24:19;25.50;37.70
11664;DHT22;72375;59.302;18.204;2024-03-08T13:27:06;25.70;37.70
11664;DHT22;72375;59.302;18.204;2024-03-08T13:30:05;25.90;37.30
11664;DHT22;72375;59.302;18.204;2024-03-08T13:32:52;25.80;37.00
11664;DHT22;72375;59.302;18.204;2024-03-08T13:35:37;25.30;37.50
11664;DHT22;72375;59.302;18.204;2024-03-08T13:38:25;25.00;38.10
11664;DHT22;72375;59.302;18.204;2024-03-08T13:41:10;24.50;38.30
11664;DHT22;72375;59.302;18.204;2024-03-08T13:43:58;24.50;38.60
11664;DHT22;72375;59.302;18.204;2024-03-08T13:46:46;24.30;38.30
11664;DHT22;72375;59.302;18.204;2024-03-08T13:49:35;24.10;38.40
11664;DHT22;72375;59.302;18.204;2024-03-08T13:52:21;23.70;39.00
11664;DHT22;72375;59.302;18.204;2024-03-08T13:55:09;23.30;39.50
11664;DHT22;72375;59.302;18.204;2024-03-08T13:57:56;23.00;39.50
11664;DHT22;72375;59.302;18.204;2024-03-08T14:00:43;23.50;39.70
11664;DHT22;72375;59.302;18.204;2024-03-08T14:03:33;24.00;39.00
11664;DHT22;72375;59.302;18.204;2024-03-08T14:06:18;23.10;39.30
11664;DHT22;72375;59.302;18.204;2024-03-08T14:09:04;22.20;40.40
11664;DHT22;72375;59.302;18.204;2024-03-08T14:11:52;21.90;40.70
11664;DHT22;72375;59.302;18.204;2024-03-08T14:14:38;22.50;40.40
11664;DHT22;72375;59.302;18.204;2024-03-08T14:17:26;23.20;39.00
11664;DHT22;72375;59.302;18.204;2024-03-08T14:20:16;22.10;39.20
11664;DHT22;72375;59.302;18.204;2024-03-08T14:23:02;21.00;40.90
11664;DHT22;72375;59.302;18.204;2024-03-08T14:25:50;20.10;41.70
11664;DHT22;72375;59.302;18.204;2024-03-08T14:28:37;20.00;41.90
11664;DHT22;72375;59.302;18.204;2024-03-08T14:31:23;20.70;41.30
11664;DHT22;72375;59.302;18.204;2024-03-08T14:34:09;21.90;39.90
11664;DHT22;72375;59.302;18.204;2024-03-08T14:36:56;22.40;38.40
11664;DHT22;72375;59.302;18.204;2024-03-08T14:39:42;21.20;38.90
11664;DHT22;72375;59.302;18.204;2024-03-08T14:42:28;19.80;40.70
11664;DHT22;72375;59.302;18.204;2024-03-08T14:45:14;18.90;42.10
11664;DHT22;72375;59.302;18.204;2024-03-08T14:48:00;18.50;43.10
11664;DHT22;72375;59.302;18.204;2024-03-08T14:50:46;18.60;42.80
11664;DHT22;72375;59.302;18.204;2024-03-08T14:53:33;18.10;43.10
11664;DHT22;72375;59.302;18.204;2024-03-08T14:56:19;17.40;44.30
11664;DHT22;72375;59.302;18.204;2024-03-08T14:59:04;16.80;45.40
11664;DHT22;72375;59.302;18.204;2024-03-08T15:01:50;16.60;45.80
11664;DHT22;72375;59.302;18.204;2024-03-08T15:04:36;16.60;45.70
11664;DHT22;72375;59.302;18.204;2024-03-08T15:07:22;16.80;45.40
11664;DHT22;72375;59.302;18.204;2024-03-08T15:10:09;16.90;45.30
11664;DHT22;72375;59.302;18.204;2024-03-08T15:12:58;17.00;44.90
11664;DHT22;72375;59.302;18.204;2024-03-08T15:15:46;17.30;44.70
11664;DHT22;72375;59.302;18.204;2024-03-08T15:18:39;17.70;43.60
11664;DHT22;72375;59.302;18.204;2024-03-08T15:21:24;17.10;43.50
11664;DHT22;72375;59.302;18.204;2024-03-08T15:24:10;16.10;44.80
11664;DHT22;72375;59.302;18.204;2024-03-08T15:27:00;15.30;46.20
11664;DHT22;72375;59.302;18.204;2024-03-08T15:29:47;15.50;46.50
11664;DHT22;72375;59.302;18.204;2024-03-08T15:32:36;15.50;46.00
11664;DHT22;72375;59.302;18.204;2024-03-08T15:35:22;15.20;45.80
11664;DHT22;72375;59.302;18.204;2024-03-08T15:38:07;14.50;46.70
11664;DHT22;72375;59.302;18.204;2024-03-08T15:40:53;13.60;47.90
11664;DHT22;72375;59.302;18.204;2024-03-08T15:43:40;13.10;49.70
11664;DHT22;72375;59.302;18.204;2024-03-08T15:46:26;12.60;49.90
11664;DHT22;72375;59.302;18.204;2024-03-08T15:49:12;12.20;50.70
11664;DHT22;72375;59.302;18.204;2024-03-08T15:51:58;11.90;51.10
11664;DHT22;72375;59.302;18.204;2024-03-08T15:54:44;11.60;51.50
11664;DHT22;72375;59.302;18.204;2024-03-08T15:57:30;11.40;51.80
11664;DHT22;72375;59.302;18.204;2024-03-08T16:00:18;11.20;52.70
11664;DHT22;72375;59.302;18.204;2024-03-08T16:03:17;11.00;52.20
11664;DHT22;72375;59.302;18.204;2024-03-08T16:06:03;10.80;52.50
11664;DHT22;72375;59.302;18.204;2024-03-08T16:08:51;10.60;52.70
11664;DHT22;72375;59.302;18.204;2024-03-08T16:11:37;10.50;52.90
11664;DHT22;72375;59.302;18.204;2024-03-08T16:14:23;10.30;53.20
11664;DHT22;72375;59.302;18.204;2024-03-08T16:17:10;10.20;53.40
11664;DHT22;72375;59.302;18.204;2024-03-08T16:19:56;10.00;53.60
11664;DHT22;72375;59.302;18.204;2024-03-08T16:22:43;9.90;54.70
11664;DHT22;72375;59.302;18.204;2024-03-08T16:25:30;9.80;54.90
11664;DHT22;72375;59.302;18.204;2024-03-08T16:28:16;9.60;55.00
11664;DHT22;72375;59.302;18.204;2024-03-08T16:31:01;9.50;55.10
11664;DHT22;72375;59.302;18.204;2024-03-08T16:33:50;9.30;55.20
11664;DHT22;72375;59.302;18.204;2024-03-08T16:36:35;9.20;55.30
11664;DHT22;72375;59.302;18.204;2024-03-08T16:39:24;9.10;55.50
11664;DHT22;72375;59.302;18.204;2024-03-08T16:42:13;9.00;55.70
11664;DHT22;72375;59.302;18.204;2024-03-08T16:44:59;8.80;55.60
11664;DHT22;72375;59.302;18.204;2024-03-08T16:47:46;8.70;56.00
11664;DHT22;72375;59.302;18.204;2024-03-08T16:50:35;8.60;56.10
11664;DHT22;72375;59.302;18.204;2024-03-08T16:53:20;8.50;56.30
11664;DHT22;72375;59.302;18.204;2024-03-08T16:56:06;8.40;56.50
11664;DHT22;72375;59.302;18.204;2024-03-08T16:58:55;8.20;56.60
11664;DHT22;72375;59.302;18.204;2024-03-08T17:01:41;8.10;56.70
11664;DHT22;72375;59.302;18.204;2024-03-08T17:04:27;8.00;56.90
11664;DHT22;72375;59.302;18.204;2024-03-08T17:07:14;8.00;57.10
11664;DHT22;72375;59.302;18.204;2024-03-08T17:10:00;7.90;57.30
11664;DHT22;72375;59.302;18.204;2024-03-08T17:12:47;7.80;57.30
11664;DHT22;72375;59.302;18.204;2024-03-08T17:15:33;7.70;57.40
11664;DHT22;72375;59.302;18.204;2024-03-08T17:18:19;7.60;57.50
11664;DHT22;72375;59.302;18.204;2024-03-08T17:21:05;7.50;57.90
11664;DHT22;72375;59.302;18.204;2024-03-08T17:23:58;7.50;58.10
11664;DHT22;72375;59.302;18.204;2024-03-08T17:26:45;7.40;57.90
11664;DHT22;72375;59.302;18.204;2024-03-08T17:29:31;7.40;58.10